createdAt,value
2023-10-25T00:01:59.758Z,91.77
2023-10-25T00:04:30.333Z,91.84
2023-10-25T00:07:00.904Z,91.92
2023-10-25T00:09:31.545Z,91.90
2023-10-25T00:12:02.458Z,91.85
2023-10-25T00:14:33.057Z,91.80
2023-10-25T00:17:03.627Z,91.90
2023-10-25T00:19:34.674Z,91.83
2023-10-25T00:22:05.774Z,91.90
2023-10-25T00:24:36.277Z,91.71
2023-10-25T00:27:08.693Z,91.73
2023-10-25T00:29:39.887Z,91.67
2023-10-25T00:32:17.436Z,91.72
2023-10-25T00:34:44.998Z,91.84
2023-10-25T00:37:15.527Z,91.76
2023-10-25T00:39:46.177Z,91.73
2023-10-25T00:42:16.701Z,91.73
2023-10-25T00:44:49.788Z,91.56
2023-10-25T00:47:20.776Z,91.54
2023-10-25T00:49:51.371Z,91.53
2023-10-25T00:52:22.035Z,91.50
2023-10-25T00:54:54.203Z,91.55
2023-10-25T00:57:25.077Z,91.41
2023-10-25T00:59:55.870Z,91.43
2023-10-25T01:02:38.655Z,91.35
2023-10-25T01:05:09.738Z,91.31
2023-10-25T01:07:40.368Z,91.34
2023-10-25T01:10:14.966Z,91.41
2023-10-25T01:12:45.666Z,91.55
2023-10-25T01:15:17.176Z,91.67
2023-10-25T01:17:49.251Z,91.68
2023-10-25T01:20:20.449Z,91.70
2023-10-25T01:22:51.590Z,91.64
2023-10-25T01:25:23.434Z,91.66
2023-10-25T01:27:54.089Z,91.60
2023-10-25T01:30:24.609Z,91.61
2023-10-25T01:32:55.873Z,91.44
2023-10-25T01:35:28.280Z,91.58
2023-10-25T01:37:58.833Z,91.63
2023-10-25T01:40:29.501Z,91.55
2023-10-25T01:43:01.282Z,91.48
2023-10-25T01:45:32.457Z,91.34
2023-10-25T01:48:03.429Z,91.47
2023-10-25T01:50:35.847Z,91.50
2023-10-25T01:53:10.298Z,91.65
2023-10-25T01:55:43.718Z,91.49
2023-10-25T01:58:14.245Z,91.46
2023-10-25T02:00:46.420Z,91.33
2023-10-25T02:03:18.698Z,91.31
2023-10-25T02:05:51.085Z,91.39
2023-10-25T02:08:25.638Z,91.50
2023-10-25T02:10:56.778Z,91.32
2023-10-25T02:13:27.693Z,91.38
2023-10-25T02:15:58.906Z,91.37
2023-10-25T02:18:30.266Z,91.44
2023-10-25T02:21:02.386Z,91.41
2023-10-25T02:23:33.253Z,91.45
2023-10-25T02:26:03.944Z,91.37
2023-10-25T02:28:34.545Z,91.34
2023-10-25T02:31:08.214Z,91.25
2023-10-25T02:33:42.206Z,91.35
2023-10-25T02:36:12.818Z,91.11
2023-10-25T02:38:44.299Z,91.08
2023-10-25T02:41:14.872Z,90.97
2023-10-25T02:43:45.755Z,90.97
2023-10-25T02:46:16.336Z,90.97
2023-10-25T02:48:46.867Z,90.95
2023-10-25T02:51:17.913Z,90.95
2023-10-25T02:53:48.513Z,90.99
2023-10-25T02:56:19.011Z,90.78
2023-10-25T02:58:49.782Z,90.75
2023-10-25T03:01:24.865Z,90.59
2023-10-25T03:03:57.093Z,90.81
2023-10-25T03:06:27.639Z,90.60
2023-10-25T03:08:58.890Z,90.66
2023-10-25T03:11:30.818Z,90.69
2023-10-25T03:14:02.603Z,90.35
2023-10-25T03:16:33.304Z,89.97
2023-10-25T03:19:03.952Z,89.93
2023-10-25T03:21:34.547Z,89.94
2023-10-25T03:24:08.969Z,90.06
2023-10-25T03:26:39.606Z,90.06
2023-10-25T03:29:10.190Z,90.01
2023-10-25T03:31:41.076Z,90.04
2023-10-25T03:34:12.031Z,90.17
2023-10-25T03:36:42.946Z,90.19
2023-10-25T03:39:19.681Z,90.29
2023-10-25T03:41:50.470Z,90.17
2023-10-25T03:44:21.002Z,89.80
2023-10-25T03:46:51.636Z,89.53
2023-10-25T03:49:22.376Z,89.37
2023-10-25T03:51:52.886Z,89.33
2023-10-25T03:54:23.677Z,89.12
2023-10-25T03:56:54.276Z,88.85
2023-10-25T03:59:24.846Z,88.92
2023-10-25T04:01:55.474Z,89.05
2023-10-25T04:04:26.302Z,89.35
2023-10-25T04:06:57.613Z,89.47
2023-10-25T04:09:28.260Z,89.82
2023-10-25T04:11:58.853Z,89.84
2023-10-25T04:14:30.098Z,89.47
2023-10-25T04:17:01.020Z,89.04
2023-10-25T04:19:31.649Z,88.73
2023-10-25T04:22:02.943Z,89.00
2023-10-25T04:24:33.917Z,89.16
2023-10-25T04:27:04.503Z,88.99
2023-10-25T04:29:35.207Z,89.22
2023-10-25T04:32:08.223Z,89.36
2023-10-25T04:34:39.033Z,89.53
2023-10-25T04:37:09.940Z,89.67
2023-10-25T04:39:42.119Z,89.96
2023-10-25T04:42:13.011Z,90.23
2023-10-25T04:44:43.718Z,90.24
2023-10-25T04:47:15.027Z,90.25
2023-10-25T04:49:46.033Z,90.42
2023-10-25T04:52:20.260Z,90.20
2023-10-25T04:54:52.710Z,90.69
2023-10-25T04:57:23.422Z,90.71
2023-10-25T04:59:55.685Z,90.77
2023-10-25T05:02:26.339Z,90.89
2023-10-25T05:04:59.196Z,90.59
2023-10-25T05:07:32.768Z,90.76
2023-10-25T05:10:07.258Z,90.81
2023-10-25T05:12:46.099Z,90.83
2023-10-25T05:15:21.327Z,91.01
2023-10-25T05:17:52.592Z,90.79
2023-10-25T05:20:23.690Z,90.96
2023-10-25T05:22:56.476Z,90.86
2023-10-25T05:25:29.433Z,91.01
2023-10-25T05:28:02.310Z,91.06
2023-10-25T05:30:33.460Z,90.84
2023-10-25T05:33:07.280Z,90.92
2023-10-25T05:35:39.489Z,90.93
2023-10-25T05:38:10.211Z,90.89
2023-10-25T05:40:41.873Z,90.82
2023-10-25T05:43:15.740Z,90.83
2023-10-25T05:45:47.130Z,90.86
2023-10-25T05:48:18.146Z,90.77
2023-10-25T05:50:52.007Z,90.91
2023-10-25T05:53:22.706Z,90.84
2023-10-25T05:55:53.838Z,90.86
2023-10-25T05:58:25.282Z,90.60
2023-10-25T06:00:57.452Z,90.77
2023-10-25T06:03:32.340Z,90.67
2023-10-25T06:06:02.750Z,90.73
2023-10-25T06:08:33.851Z,90.61
2023-10-25T06:11:07.231Z,90.50
2023-10-25T06:13:38.523Z,90.33
2023-10-25T06:16:09.144Z,90.48
2023-10-25T06:18:39.892Z,90.58
2023-10-25T06:21:11.060Z,90.48
2023-10-25T06:23:41.793Z,90.52
2023-10-25T06:26:12.509Z,90.48
2023-10-25T06:28:43.420Z,90.21
2023-10-25T06:31:16.882Z,90.04
2023-10-25T06:33:52.716Z,89.80
2023-10-25T06:36:22.650Z,89.65
2023-10-25T06:38:53.935Z,89.50
2023-10-25T06:41:25.228Z,89.65
2023-10-25T06:43:56.310Z,89.35
2023-10-25T06:46:27.714Z,89.03
2023-10-25T06:48:59.482Z,88.93
2023-10-25T06:51:31.571Z,89.13
2023-10-25T06:54:03.835Z,89.05
2023-10-25T06:56:37.553Z,88.76
2023-10-25T06:59:09.287Z,88.51
2023-10-25T07:01:45.307Z,88.57
2023-10-25T07:04:17.002Z,88.44
2023-10-25T07:06:51.224Z,88.28
2023-10-25T07:09:22.249Z,87.70
2023-10-25T07:11:52.823Z,87.51
2023-10-25T07:14:24.926Z,87.45
2023-10-25T07:16:55.631Z,87.50
2023-10-25T07:19:27.370Z,87.43
2023-10-25T07:21:58.364Z,86.80
2023-10-25T07:24:28.860Z,87.04
2023-10-25T07:27:00.832Z,86.90
2023-10-25T07:29:32.187Z,86.84
2023-10-25T07:32:02.775Z,86.99
2023-10-25T07:34:33.266Z,86.90
2023-10-25T07:37:03.853Z,87.03
2023-10-25T07:39:36.064Z,86.74
2023-10-25T07:42:08.699Z,86.47
2023-10-25T07:44:40.745Z,86.04
2023-10-25T07:47:11.542Z,85.54
2023-10-25T07:49:43.989Z,85.03
2023-10-25T07:52:18.641Z,84.44
2023-10-25T07:54:51.055Z,83.59
2023-10-25T07:57:58.293Z,83.02
2023-10-25T07:59:55.668Z,83.00
2023-10-25T08:02:31.810Z,82.57
2023-10-25T08:05:03.270Z,82.15
2023-10-25T08:07:35.654Z,81.84
2023-10-25T08:10:09.410Z,81.66
2023-10-25T08:12:41.792Z,80.81
2023-10-25T08:15:15.458Z,80.49
2023-10-25T08:17:46.273Z,79.60
2023-10-25T08:20:20.287Z,79.19
2023-10-25T08:22:52.745Z,79.03
2023-10-25T08:25:25.430Z,78.72
2023-10-25T08:27:58.634Z,79.04
2023-10-25T08:30:30.430Z,78.77
2023-10-25T08:33:01.577Z,78.54
2023-10-25T08:35:34.361Z,79.29
2023-10-25T08:38:07.142Z,78.72
2023-10-25T08:40:39.588Z,78.42
2023-10-25T08:43:13.123Z,79.76
2023-10-25T08:45:46.402Z,79.11
2023-10-25T08:48:17.013Z,78.38
2023-10-25T08:50:48.664Z,78.26
2023-10-25T08:53:26.390Z,78.18
2023-10-25T08:56:00.475Z,77.57
2023-10-25T08:58:32.106Z,77.77
2023-10-25T09:01:04.596Z,77.58
2023-10-25T09:03:42.452Z,77.71
2023-10-25T09:06:17.047Z,77.49
2023-10-25T09:08:54.816Z,78.40
2023-10-25T09:11:31.399Z,77.86
2023-10-25T09:14:03.733Z,78.33
2023-10-25T09:16:36.919Z,78.22
2023-10-25T09:19:09.210Z,78.50
2023-10-25T09:21:42.415Z,79.14
2023-10-25T09:24:13.075Z,79.20
2023-10-25T09:26:45.202Z,78.68
2023-10-25T09:29:18.438Z,78.95
2023-10-25T09:31:53.720Z,79.19
2023-10-25T09:34:28.344Z,79.03
2023-10-25T09:36:59.402Z,79.23
2023-10-25T09:39:35.908Z,79.29
2023-10-25T09:42:11.183Z,78.63
2023-10-25T09:44:51.393Z,78.44
2023-10-25T09:47:27.119Z,77.48
2023-10-25T09:50:02.913Z,76.96
2023-10-25T09:52:36.982Z,77.34
2023-10-25T09:55:17.869Z,77.37
2023-10-25T09:57:50.277Z,77.85
2023-10-25T10:00:23.117Z,78.80
2023-10-25T10:02:59.551Z,78.42
2023-10-25T10:05:35.855Z,78.35
2023-10-25T10:08:18.499Z,78.78
2023-10-25T10:11:00.275Z,78.77
2023-10-25T10:13:30.800Z,78.45
2023-10-25T10:16:06.706Z,78.58
2023-10-25T10:18:40.214Z,78.44
2023-10-25T10:21:11.991Z,78.63
2023-10-25T10:23:45.994Z,78.43
2023-10-25T10:26:36.137Z,78.16
2023-10-25T10:29:09.969Z,77.36
2023-10-25T10:31:55.735Z,76.13
2023-10-25T10:34:42.436Z,74.21
2023-10-25T10:37:18.227Z,72.97
2023-10-25T10:40:10.686Z,72.99
2023-10-25T10:42:44.920Z,72.00
2023-10-25T10:45:19.448Z,71.27
2023-10-25T10:47:55.769Z,71.35
2023-10-25T10:50:27.305Z,70.76
2023-10-25T10:52:59.442Z,71.33
2023-10-25T10:55:29.986Z,71.00
2023-10-25T10:58:08.063Z,72.75
2023-10-25T11:00:34.455Z,73.02
2023-10-25T11:03:10.302Z,72.13
2023-10-25T11:05:40.230Z,71.98
2023-10-25T11:08:14.237Z,72.21
2023-10-25T11:10:45.809Z,72.91
2023-10-25T11:13:18.221Z,73.19
2023-10-25T11:15:49.754Z,72.94
2023-10-25T11:18:20.562Z,73.19
2023-10-25T11:20:51.260Z,74.56
2023-10-25T11:23:21.883Z,73.72
2023-10-25T11:25:53.762Z,72.56
2023-10-25T11:28:25.724Z,72.91
2023-10-25T11:31:04.738Z,73.55
2023-10-25T11:33:41.108Z,73.42
2023-10-25T11:36:13.338Z,73.27
2023-10-25T11:38:48.504Z,72.26
2023-10-25T11:41:19.639Z,71.52
2023-10-25T11:43:50.794Z,71.80
2023-10-25T11:46:23.788Z,70.21
2023-10-25T11:48:57.758Z,70.07
2023-10-25T11:51:29.108Z,70.06
2023-10-25T11:54:13.932Z,69.61
2023-10-25T11:56:32.863Z,67.74
2023-10-25T11:59:03.480Z,67.09
2023-10-25T12:01:34.229Z,65.64
2023-10-25T12:04:05.050Z,68.78
2023-10-25T12:06:37.078Z,70.52
2023-10-25T12:09:09.298Z,71.10
2023-10-25T12:11:40.671Z,72.27
2023-10-25T12:14:21.037Z,70.54
2023-10-25T12:16:46.511Z,71.25
2023-10-25T12:19:17.667Z,71.88
2023-10-25T12:21:48.414Z,71.53
2023-10-25T12:24:19.206Z,71.31
2023-10-25T12:26:49.758Z,71.80
2023-10-25T12:29:21.005Z,73.44
2023-10-25T12:31:51.637Z,72.88
2023-10-25T12:34:22.563Z,71.52
2023-10-25T12:36:54.307Z,72.97
2023-10-25T12:39:25.355Z,71.23
2023-10-25T12:41:55.970Z,72.68
2023-10-25T12:44:27.077Z,72.23
2023-10-25T12:46:57.806Z,71.95
2023-10-25T12:49:28.610Z,71.63
2023-10-25T12:51:59.213Z,71.80
2023-10-25T12:54:29.723Z,72.05
2023-10-25T12:57:00.562Z,71.45
2023-10-25T12:59:31.195Z,70.29
2023-10-25T13:02:01.802Z,70.87
2023-10-25T13:04:34.151Z,71.89
2023-10-25T13:07:07.026Z,72.56
2023-10-25T13:09:37.814Z,72.60
2023-10-25T13:12:10.542Z,72.96
2023-10-25T13:14:41.271Z,72.92
2023-10-25T13:17:20.105Z,73.02
2023-10-25T13:19:45.706Z,74.02
2023-10-25T13:22:17.784Z,73.72
2023-10-25T13:24:49.149Z,73.50
2023-10-25T13:27:19.775Z,73.34
2023-10-25T13:29:51.176Z,72.82
2023-10-25T13:32:22.661Z,73.13
2023-10-25T13:34:53.664Z,73.86
2023-10-25T13:37:24.319Z,73.55
2023-10-25T13:39:54.971Z,73.47
2023-10-25T13:42:25.650Z,73.58
2023-10-25T13:44:56.243Z,74.22
2023-10-25T13:47:28.160Z,73.94
2023-10-25T13:49:59.052Z,74.14
2023-10-25T13:52:29.993Z,74.11
2023-10-25T13:55:00.550Z,74.14
2023-10-25T13:57:31.233Z,73.34
2023-10-25T14:00:02.061Z,73.52
2023-10-25T14:02:34.349Z,73.13
2023-10-25T14:05:05.057Z,72.93
2023-10-25T14:07:35.842Z,72.84
2023-10-25T14:10:10.008Z,73.57
2023-10-25T14:12:40.618Z,73.34
2023-10-25T14:15:11.640Z,73.77
2023-10-25T14:17:42.840Z,73.74
2023-10-25T14:20:14.206Z,73.71
2023-10-25T14:22:47.069Z,73.70
2023-10-25T14:25:17.847Z,74.23
2023-10-25T14:27:48.865Z,74.10
2023-10-25T14:30:21.856Z,74.52
2023-10-25T14:32:53.954Z,74.59
2023-10-25T14:35:24.639Z,74.82
2023-10-25T14:37:58.059Z,75.08
2023-10-25T14:40:31.274Z,74.60
2023-10-25T14:43:01.956Z,74.65
2023-10-25T14:45:36.826Z,74.32
2023-10-25T14:48:12.294Z,75.37
2023-10-25T14:50:43.276Z,75.52
2023-10-25T14:53:14.217Z,75.62
2023-10-25T14:55:46.998Z,75.88
2023-10-25T14:58:18.220Z,76.51
2023-10-25T15:00:49.294Z,77.73
2023-10-25T15:03:22.086Z,77.85
2023-10-25T15:06:00.471Z,77.72
2023-10-25T15:08:34.646Z,77.18
2023-10-25T15:11:05.386Z,77.33
2023-10-25T15:13:36.014Z,77.61
2023-10-25T15:16:07.412Z,77.64
2023-10-25T15:18:40.048Z,78.07
2023-10-25T15:21:15.667Z,78.25
2023-10-25T15:23:47.639Z,79.62
2023-10-25T15:26:19.804Z,80.23
2023-10-25T15:28:51.049Z,79.63
2023-10-25T15:31:25.451Z,79.72
2023-10-25T15:33:56.162Z,79.33
2023-10-25T15:36:28.191Z,78.91
2023-10-25T15:39:09.005Z,78.94
2023-10-25T15:41:31.304Z,80.44
2023-10-25T15:44:03.084Z,81.14
2023-10-25T15:46:35.609Z,81.91
2023-10-25T15:49:06.872Z,82.59
2023-10-25T15:51:37.605Z,80.83
2023-10-25T15:54:11.088Z,81.14
2023-10-25T15:56:43.176Z,81.19
2023-10-25T15:59:13.756Z,81.15
2023-10-25T16:01:52.188Z,80.99
2023-10-25T16:04:17.032Z,81.68
2023-10-25T16:06:48.193Z,81.90
2023-10-25T16:09:18.679Z,80.76
2023-10-25T16:11:50.284Z,81.23
2023-10-25T16:14:26.240Z,81.04
2023-10-25T16:16:57.559Z,81.29
2023-10-25T16:19:28.461Z,81.26
2023-10-25T16:22:01.411Z,81.30
2023-10-25T16:24:32.249Z,81.67
2023-10-25T16:27:04.256Z,82.33
2023-10-25T16:29:36.590Z,81.51
2023-10-25T16:32:09.100Z,81.31
2023-10-25T16:34:43.073Z,81.51
2023-10-25T16:37:23.908Z,82.18
2023-10-25T16:39:54.059Z,81.94
2023-10-25T16:42:26.573Z,82.07
2023-10-25T16:44:58.423Z,82.34
2023-10-25T16:47:29.499Z,82.26
2023-10-25T16:50:00.158Z,82.36
2023-10-25T16:52:32.896Z,83.18
2023-10-25T16:55:04.741Z,83.06
2023-10-25T16:57:41.951Z,83.62
2023-10-25T17:00:13.262Z,82.71
2023-10-25T17:02:45.173Z,82.73
2023-10-25T17:05:18.401Z,82.63
2023-10-25T17:07:50.091Z,82.44
2023-10-25T17:10:23.655Z,82.85
2023-10-25T17:12:56.441Z,83.02
2023-10-25T17:15:31.600Z,83.10
2023-10-25T17:18:05.292Z,83.24
2023-10-25T17:20:36.199Z,83.48
2023-10-25T17:23:07.563Z,83.63
2023-10-25T17:25:41.520Z,83.79
2023-10-25T17:28:13.784Z,83.92
2023-10-25T17:30:44.749Z,84.17
2023-10-25T17:33:17.335Z,84.18
2023-10-25T17:35:53.809Z,84.05
2023-10-25T17:38:27.408Z,84.32
2023-10-25T17:40:58.632Z,84.56
2023-10-25T17:43:32.294Z,84.68
2023-10-25T17:46:12.216Z,84.83
2023-10-25T17:48:47.761Z,85.19
2023-10-25T17:51:19.361Z,84.21
2023-10-25T17:53:50.310Z,84.54
2023-10-25T17:56:26.586Z,85.03
2023-10-25T17:59:00.679Z,84.52
2023-10-25T18:01:36.720Z,84.65
2023-10-25T18:04:07.742Z,84.23
2023-10-25T18:06:49.304Z,84.18
2023-10-25T18:09:11.389Z,83.83
2023-10-25T18:11:46.212Z,84.38
2023-10-25T18:16:50.073Z,84.08
2023-10-25T18:19:23.968Z,83.98
2023-10-25T18:21:57.715Z,83.82
2023-10-25T18:24:29.955Z,83.80
2023-10-25T18:27:00.880Z,84.25
2023-10-25T18:29:31.812Z,84.19
2023-10-25T18:32:21.425Z,84.18
2023-10-25T18:34:39.098Z,83.95
2023-10-25T18:37:09.990Z,83.69
2023-10-25T18:39:43.592Z,83.48
2023-10-25T18:42:16.143Z,83.98
2023-10-25T18:44:50.086Z,83.86
2023-10-25T18:47:23.346Z,83.65
2023-10-25T18:49:53.998Z,83.78
2023-10-25T18:52:28.054Z,83.69
2023-10-25T18:54:59.091Z,83.56
2023-10-25T18:57:32.493Z,83.68
2023-10-25T19:00:03.459Z,83.88
2023-10-25T19:02:34.930Z,83.88
2023-10-25T19:06:26.000Z,83.92
2023-10-25T19:07:38.867Z,84.08
2023-10-25T19:10:29.067Z,84.28
2023-10-25T19:12:43.878Z,84.10
2023-10-25T19:15:15.159Z,83.96
2023-10-25T19:17:47.794Z,83.75
2023-10-25T19:20:19.969Z,83.71
2023-10-25T19:22:51.441Z,84.31
2023-10-25T19:25:23.365Z,84.01
2023-10-25T19:27:54.465Z,84.18
2023-10-25T19:30:25.378Z,84.09
2023-10-25T19:32:55.986Z,84.02
2023-10-25T19:35:27.279Z,84.34
2023-10-25T19:37:58.209Z,84.15
2023-10-25T19:40:29.754Z,84.40
2023-10-25T19:43:01.287Z,84.64
2023-10-25T19:45:33.570Z,84.23
2023-10-25T19:48:06.277Z,84.89
2023-10-25T19:50:37.068Z,84.80
2023-10-25T19:53:07.784Z,84.96
2023-10-25T19:55:39.841Z,84.65
2023-10-25T19:58:11.282Z,84.97
2023-10-25T20:00:41.842Z,84.56
2023-10-25T20:03:13.109Z,84.29
2023-10-25T20:05:45.378Z,84.40
2023-10-25T20:08:17.631Z,84.06
2023-10-25T20:10:48.304Z,84.34
2023-10-25T20:13:21.596Z,84.31
2023-10-25T20:15:53.712Z,84.59
2023-10-25T20:18:26.031Z,84.54
2023-10-25T20:20:56.837Z,84.29
2023-10-25T20:23:27.657Z,84.22
2023-10-25T20:25:59.940Z,84.29
2023-10-25T20:28:31.108Z,84.38
2023-10-25T20:31:05.689Z,84.54
2023-10-25T20:33:37.982Z,84.44
2023-10-25T20:36:09.316Z,84.32
2023-10-25T20:38:40.377Z,84.52
2023-10-25T20:41:12.779Z,84.56
2023-10-25T20:43:45.324Z,84.11
2023-10-25T20:46:19.727Z,84.21
2023-10-25T20:48:49.518Z,84.17
2023-10-25T20:51:21.697Z,84.42
2023-10-25T20:53:53.203Z,84.36
2023-10-25T20:56:23.986Z,84.27
2023-10-25T20:58:55.900Z,84.42
2023-10-25T21:01:26.553Z,83.87
2023-10-25T21:03:57.434Z,83.91
2023-10-25T21:06:28.244Z,83.71
2023-10-25T21:08:58.914Z,83.96
2023-10-25T21:11:30.284Z,83.49
2023-10-25T21:14:00.948Z,83.62
2023-10-25T21:16:33.529Z,83.89
2023-10-25T21:19:05.676Z,83.67
2023-10-25T21:21:38.206Z,83.70
2023-10-25T21:24:09.628Z,83.40
2023-10-25T21:26:41.854Z,83.10
2023-10-25T21:29:12.486Z,83.19
2023-10-25T21:31:43.687Z,83.37
2023-10-25T21:34:16.972Z,83.20
2023-10-25T21:36:47.583Z,83.31
2023-10-25T21:39:18.650Z,83.01
2023-10-25T21:41:50.787Z,82.97
2023-10-25T21:44:22.013Z,83.36
2023-10-25T21:46:53.916Z,83.68
2023-10-25T21:49:24.705Z,83.37
2023-10-25T21:51:55.462Z,84.22
2023-10-25T21:54:26.190Z,84.07
2023-10-25T21:56:56.988Z,84.99
2023-10-25T21:59:49.967Z,85.11
2023-10-25T22:02:02.861Z,85.03
2023-10-25T22:04:33.783Z,85.34
2023-10-25T22:07:04.821Z,85.53
2023-10-25T22:09:35.884Z,85.90
2023-10-25T22:12:10.306Z,85.80
2023-10-25T22:14:42.766Z,85.91
2023-10-25T22:17:13.685Z,85.94
2023-10-25T22:19:44.498Z,85.98
2023-10-25T22:22:15.374Z,85.84
2023-10-25T22:24:46.106Z,86.27
2023-10-25T22:27:16.944Z,86.02
2023-10-25T22:29:47.564Z,86.56
2023-10-25T22:32:18.775Z,86.32
2023-10-25T22:34:49.612Z,85.84
2023-10-25T22:37:22.132Z,86.12
2023-10-25T22:39:55.263Z,86.10
2023-10-25T22:42:26.478Z,86.60
2023-10-25T22:44:57.396Z,86.32
2023-10-25T22:47:29.988Z,86.20
2023-10-25T22:50:02.368Z,85.94
2023-10-25T22:52:33.113Z,86.03
2023-10-25T22:55:04.138Z,86.28
2023-10-25T22:57:34.684Z,86.80
2023-10-25T23:00:05.923Z,86.55
2023-10-25T23:02:36.865Z,86.99
2023-10-25T23:05:08.376Z,86.86
2023-10-25T23:07:40.262Z,87.36
2023-10-25T23:10:12.651Z,87.20
2023-10-25T23:12:43.327Z,86.98
2023-10-25T23:15:13.986Z,86.75
2023-10-25T23:17:45.101Z,86.84
2023-10-25T23:20:17.799Z,87.01
2023-10-25T23:22:48.320Z,86.91
2023-10-25T23:25:18.952Z,87.05
2023-10-25T23:27:49.703Z,86.67
2023-10-25T23:30:23.463Z,86.81
2023-10-25T23:32:54.796Z,86.74
2023-10-25T23:35:27.344Z,87.13
2023-10-25T23:37:57.843Z,86.86
2023-10-25T23:40:28.358Z,86.21
2023-10-25T23:42:58.867Z,86.42
2023-10-25T23:45:30.389Z,86.50
2023-10-25T23:48:01.005Z,86.47
2023-10-25T23:50:32.339Z,86.71
2023-10-25T23:53:04.176Z,86.90
2023-10-25T23:55:34.631Z,86.67
2023-10-25T23:58:07.349Z,86.78
